Time;durP1;ratioP1;P1;durP2;ratioP2;P2;SDS_P1;SDS_P2;PMS_P1;PMS_P2;Temp;Humidity;BMP_temperature;BMP_pressure;BME280_temperature;BME280_humidity;BME280_pressure;Samples;Min_cycle;Max_cycle;Signal;HPM_P1;HPM_P2
2022/06/04 00:01:59;;;;;;;7.35;4.05;;;;;;;;;;6317191;22;20022;-87
2022/06/04 00:04:27;;;;;;;6.65;3.45;;;;;;;;;;6315912;22;20011;-87
2022/06/04 00:06:59;;;;;;;8.75;3.60;;;;;;;;;;6312622;22;20022;-87
2022/06/04 00:09:28;;;;;;;7.32;3.90;;;;;;;;;;6305359;22;20074;-83
2022/06/04 00:17:35;;;;;;;7.18;3.78;;;;;;;;;;6281730;22;20770;-85
2022/06/04 00:20:04;;;;;;;6.20;3.35;;;;;;;;;;6253906;22;20026;-86
2022/06/04 00:22:31;;;;;;;6.72;3.90;;;;;;;;;;6281450;22;20091;-88
2022/06/04 00:25:23;;;;;;;8.60;3.70;;;;;;;;;;6282540;22;20022;-88
2022/06/04 00:27:51;;;;;;;10.65;4.40;;;;;;;;;;6285318;22;20024;-86
2022/06/04 00:30:21;;;;;;;5.82;3.65;;;;;;;;;;6285491;22;20491;-86
2022/06/04 00:32:49;;;;;;;5.97;3.60;;;;;;;;;;6290848;22;20056;-80
2022/06/04 00:35:17;;;;;;;5.68;3.88;;;;;;;;;;6278900;22;20428;-81
2022/06/04 00:37:46;;;;;;;8.50;3.88;;;;;;;;;;6276573;22;20035;-86
2022/06/04 00:40:39;;;;;;;10.20;4.25;;;;;;;;;;6248611;22;20036;-86
2022/06/04 00:43:32;;;;;;;7.50;4.20;;;;;;;;;;6285983;22;20022;-86
2022/06/04 00:46:52;;;;;;;10.13;3.95;;;;;;;;;;6285318;22;20366;-86
2022/06/04 00:49:19;;;;;;;6.60;4.00;;;;;;;;;;6290683;22;20047;-81
2022/06/04 00:51:51;;;;;;;7.35;3.60;;;;;;;;;;6292135;22;20022;-81
2022/06/04 00:54:46;;;;;;;9.00;4.78;;;;;;;;;;6287126;22;20011;-86
2022/06/04 00:57:22;;;;;;;5.97;3.97;;;;;;;;;;6247914;22;20370;-86
2022/06/04 01:00:04;;;;;;;7.13;4.35;;;;;;;;;;6287620;22;20080;-86
2022/06/04 01:03:29;;;;;;;7.13;4.15;;;;;;;;;;6266212;22;20011;-86
2022/06/04 01:06:25;;;;;;;11.82;4.70;;;;;;;;;;6287622;22;20016;-86
2022/06/04 01:09:37;;;;;;;8.52;3.92;;;;;;;;;;6286898;22;20082;-86
2022/06/04 01:12:30;;;;;;;7.00;4.00;;;;;;;;;;6293014;22;20020;-81
2022/06/04 01:15:21;;;;;;;8.85;3.75;;;;;;;;;;6295752;22;20027;-85
2022/06/04 01:18:12;;;;;;;8.27;3.97;;;;;;;;;;6288049;22;20030;-86
2022/06/04 01:20:57;;;;;;;5.93;3.53;;;;;;;;;;6242118;22;20024;-85
2022/06/04 01:23:51;;;;;;;5.55;3.75;;;;;;;;;;6288172;22;20038;-86
2022/06/04 01:26:28;;;;;;;8.25;4.25;;;;;;;;;;6289062;22;20707;-89
2022/06/04 01:29:29;;;;;;;6.60;3.83;;;;;;;;;;6285440;22;20016;-89
2022/06/04 01:32:10;;;;;;;7.80;4.22;;;;;;;;;;6289406;22;20017;-89
2022/06/04 01:34:50;;;;;;;4.97;3.58;;;;;;;;;;6267235;22;20019;-89
2022/06/04 01:37:28;;;;;;;7.95;3.70;;;;;;;;;;6292374;22;20024;-80
2022/06/04 01:42:59;;;;;;;8.40;4.40;;;;;;;;;;6282946;22;20309;-80
2022/06/04 01:45:55;;;;;;;8.23;4.10;;;;;;;;;;6281576;22;20084;-81
2022/06/04 01:48:51;;;;;;;6.18;4.25;;;;;;;;;;6293891;22;20012;-81
2022/06/04 01:51:22;;;;;;;8.38;4.50;;;;;;;;;;6282637;22;20093;-81
2022/06/04 01:53:55;;;;;;;10.48;5.75;;;;;;;;;;6283191;22;20613;-89
2022/06/04 01:56:38;;;;;;;6.45;4.13;;;;;;;;;;6290057;22;20094;-89
2022/06/04 01:59:19;;;;;;;7.68;4.57;;;;;;;;;;6299881;22;20175;-88
2022/06/04 02:01:52;;;;;;;6.80;4.28;;;;;;;;;;6263550;22;20086;-90
2022/06/04 02:04:26;;;;;;;8.77;4.40;;;;;;;;;;6265184;22;20015;-89
2022/06/04 02:07:30;;;;;;;11.23;4.68;;;;;;;;;;6265577;22;20024;-88
2022/06/04 02:10:28;;;;;;;9.25;4.40;;;;;;;;;;6289610;22;20022;-89
2022/06/04 02:13:11;;;;;;;8.75;4.30;;;;;;;;;;6286160;22;20286;-90
2022/06/04 02:16:03;;;;;;;8.32;4.78;;;;;;;;;;6279671;22;20032;-90
2022/06/04 02:18:39;;;;;;;6.70;4.63;;;;;;;;;;6300982;22;20022;-88
2022/06/04 02:21:18;;;;;;;9.63;4.65;;;;;;;;;;6274478;22;20012;-79
2022/06/04 02:23:47;;;;;;;7.57;4.97;;;;;;;;;;6284661;22;20023;-81
2022/06/04 02:26:17;;;;;;;9.25;5.13;;;;;;;;;;6281395;22;20062;-89
2022/06/04 02:29:00;;;;;;;8.25;4.80;;;;;;;;;;6288421;22;20050;-89
2022/06/04 02:32:01;;;;;;;8.30;4.88;;;;;;;;;;6291588;22;20443;-89
2022/06/04 02:34:54;;;;;;;9.30;5.07;;;;;;;;;;6277418;22;20023;-89
2022/06/04 02:37:29;;;;;;;9.27;5.30;;;;;;;;;;6291176;22;20022;-89
2022/06/04 02:40:26;;;;;;;7.15;4.65;;;;;;;;;;6286485;22;20023;-91
2022/06/04 02:43:05;;;;;;;11.07;5.32;;;;;;;;;;6277877;22;20384;-89
2022/06/04 02:46:24;;;;;;;11.15;5.10;;;;;;;;;;6232711;22;20030;-89
2022/06/04 02:49:00;;;;;;;7.45;4.70;;;;;;;;;;6272415;22;20043;-87
2022/06/04 02:51:36;;;;;;;8.15;4.93;;;;;;;;;;6299507;22;20079;-88
2022/06/04 02:54:31;;;;;;;8.48;4.78;;;;;;;;;;6291063;22;20038;-90
2022/06/04 02:57:15;;;;;;;8.13;5.47;;;;;;;;;;6289001;22;20020;-89
2022/06/04 02:59:56;;;;;;;9.13;4.82;;;;;;;;;;6253629;22;20019;-81
2022/06/04 03:02:27;;;;;;;11.75;5.45;;;;;;;;;;6290607;22;20438;-80
2022/06/04 03:05:24;;;;;;;7.75;5.03;;;;;;;;;;6291778;22;20016;-81
2022/06/04 03:07:54;;;;;;;10.25;4.93;;;;;;;;;;6280292;22;20110;-80
2022/06/04 03:10:34;;;;;;;8.55;4.70;;;;;;;;;;6307942;22;20037;-81
2022/06/04 03:13:01;;;;;;;10.57;5.40;;;;;;;;;;6322568;22;20023;-81
2022/06/04 03:15:55;;;;;;;8.80;5.20;;;;;;;;;;6311618;22;20023;-89
2022/06/04 03:18:23;;;;;;;10.35;5.25;;;;;;;;;;6319725;22;20017;-88
2022/06/04 03:20:53;;;;;;;8.52;5.28;;;;;;;;;;6322270;22;20079;-89
2022/06/04 03:23:45;;;;;;;10.27;5.80;;;;;;;;;;6283092;22;20086;-89
2022/06/04 03:26:13;;;;;;;10.93;5.47;;;;;;;;;;6258888;22;20072;-89
2022/06/04 03:28:41;;;;;;;11.38;6.07;;;;;;;;;;6269162;22;20042;-89
2022/06/04 03:31:09;;;;;;;10.77;5.82;;;;;;;;;;6259186;22;20023;-89
2022/06/04 03:33:37;;;;;;;9.90;5.50;;;;;;;;;;6294348;22;20019;-89
2022/06/04 03:36:09;;;;;;;8.38;5.30;;;;;;;;;;6331380;22;20025;-87
2022/06/04 03:39:02;;;;;;;9.95;5.97;;;;;;;;;;6329907;22;20011;-88
2022/06/04 03:41:40;;;;;;;11.95;5.93;;;;;;;;;;6292982;22;20027;-87
2022/06/04 03:44:07;;;;;;;11.48;6.43;;;;;;;;;;6323093;22;20098;-89
2022/06/04 03:46:35;;;;;;;13.60;6.13;;;;;;;;;;6321515;22;20507;-89
2022/06/04 03:49:09;;;;;;;11.23;6.00;;;;;;;;;;6319814;22;20014;-89
2022/06/04 03:51:37;;;;;;;11.60;6.47;;;;;;;;;;6320054;22;20019;-89
2022/06/04 03:54:11;;;;;;;9.93;5.78;;;;;;;;;;6295897;22;20042;-89
2022/06/04 03:57:37;;;;;;;12.70;6.13;;;;;;;;;;6310108;22;20023;-88
2022/06/04 03:59:57;;;;;;;13.38;6.88;;;;;;;;;;6280934;22;20026;-80
2022/06/04 04:02:45;;;;;;;12.73;6.22;;;;;;;;;;6320414;22;20065;-80
2022/06/04 04:06:01;;;;;;;18.98;6.50;;;;;;;;;;6314027;22;20015;-80
2022/06/04 04:08:29;;;;;;;13.43;6.25;;;;;;;;;;6312600;22;20039;-80
2022/06/04 04:11:25;;;;;;;13.60;6.45;;;;;;;;;;6313707;22;20037;-80
2022/06/04 04:14:17;;;;;;;11.27;7.30;;;;;;;;;;6312988;22;20351;-81
2022/06/04 04:17:09;;;;;;;13.85;6.70;;;;;;;;;;6312323;22;20031;-82
2022/06/04 04:19:37;;;;;;;13.90;6.93;;;;;;;;;;6323782;22;20528;-81
2022/06/04 04:22:05;;;;;;;13.77;6.43;;;;;;;;;;6311734;22;20095;-82
2022/06/04 04:24:33;;;;;;;18.00;7.15;;;;;;;;;;6323459;22;20011;-82
2022/06/04 04:27:01;;;;;;;16.27;6.65;;;;;;;;;;6323482;22;20015;-82
2022/06/04 04:29:53;;;;;;;13.20;6.95;;;;;;;;;;6312457;22;20037;-81
2022/06/04 04:32:21;;;;;;;13.07;6.97;;;;;;;;;;6321922;22;20015;-81
2022/06/04 04:34:49;;;;;;;15.82;7.18;;;;;;;;;;6312845;22;20515;-80
2022/06/04 04:37:21;;;;;;;14.45;7.38;;;;;;;;;;6324690;22;20026;-80
2022/06/04 04:39:54;;;;;;;13.32;7.15;;;;;;;;;;6313706;22;20019;-81
2022/06/04 04:42:23;;;;;;;12.30;7.00;;;;;;;;;;6314346;22;20443;-80
2022/06/04 04:44:57;;;;;;;14.30;7.07;;;;;;;;;;6312759;22;20015;-90
2022/06/04 04:47:25;;;;;;;13.98;6.85;;;;;;;;;;6319444;22;20069;-89
2022/06/04 04:49:53;;;;;;;12.43;6.75;;;;;;;;;;6294552;22;20011;-89
2022/06/04 04:52:21;;;;;;;13.38;7.05;;;;;;;;;;6319962;22;20023;-89
2022/06/04 04:54:49;;;;;;;16.33;8.15;;;;;;;;;;6294729;22;20026;-89
2022/06/04 04:57:17;;;;;;;15.82;7.95;;;;;;;;;;6321335;22;20015;-89
2022/06/04 04:59:45;;;;;;;12.35;6.93;;;;;;;;;;6257911;22;20443;-89
2022/06/04 05:02:13;;;;;;;14.50;7.90;;;;;;;;;;6282646;22;20023;-89
2022/06/04 05:04:41;;;;;;;11.95;6.93;;;;;;;;;;6321373;22;20065;-88
2022/06/04 05:07:11;;;;;;;16.77;7.53;;;;;;;;;;6321224;22;20015;-89
2022/06/04 05:09:40;;;;;;;15.07;7.88;;;;;;;;;;6320703;22;20019;-88
2022/06/04 05:12:08;;;;;;;17.27;7.65;;;;;;;;;;6319702;22;20107;-80
2022/06/04 05:14:40;;;;;;;16.73;7.75;;;;;;;;;;6311217;22;20027;-80
2022/06/04 05:17:07;;;;;;;18.63;8.45;;;;;;;;;;6310303;22;20224;-79
2022/06/04 05:19:39;;;;;;;16.98;8.45;;;;;;;;;;6311065;22;20034;-80
2022/06/04 05:22:07;;;;;;;13.88;7.60;;;;;;;;;;6310914;22;20350;-80
2022/06/04 05:24:59;;;;;;;13.45;7.97;;;;;;;;;;6320717;22;20012;-79
2022/06/04 05:27:59;;;;;;;18.35;8.25;;;;;;;;;;6310782;22;20721;-80
2022/06/04 05:30:33;;;;;;;17.08;8.15;;;;;;;;;;6307713;22;20030;-80
2022/06/04 05:33:02;;;;;;;13.32;7.47;;;;;;;;;;6308314;22;20023;-80
2022/06/04 05:35:29;;;;;;;18.80;7.28;;;;;;;;;;6308357;22;20316;-80
2022/06/04 05:37:57;;;;;;;13.95;8.07;;;;;;;;;;6317765;22;20029;-80
2022/06/04 05:40:25;;;;;;;13.02;7.40;;;;;;;;;;6307734;22;20023;-80
2022/06/04 05:42:53;;;;;;;15.07;8.07;;;;;;;;;;6307399;22;20439;-80
2022/06/04 05:45:21;;;;;;;15.63;7.00;;;;;;;;;;6282064;22;20027;-80
2022/06/04 05:47:50;;;;;;;12.07;6.90;;;;;;;;;;6310423;22;20042;-80
2022/06/04 05:50:49;;;;;;;14.88;6.97;;;;;;;;;;6311569;22;20109;-80
2022/06/04 05:53:17;;;;;;;14.82;7.15;;;;;;;;;;6311715;22;20031;-80
2022/06/04 05:55:50;;;;;;;12.55;6.82;;;;;;;;;;6320723;22;20053;-80
2022/06/04 06:01:22;;;;;;;13.75;6.55;;;;;;;;;;6308150;22;20447;-80
2022/06/04 06:03:49;;;;;;;13.23;7.18;;;;;;;;;;6309301;22;20062;-80
2022/06/04 06:06:44;;;;;;;16.92;7.25;;;;;;;;;;6308657;22;20437;-80
2022/06/04 06:09:14;;;;;;;11.70;6.50;;;;;;;;;;6318659;22;20110;-80
2022/06/04 06:11:42;;;;;;;13.88;6.75;;;;;;;;;;6318843;22;20094;-80
2022/06/04 06:14:10;;;;;;;16.92;7.00;;;;;;;;;;6316810;22;20026;-80
2022/06/04 06:16:40;;;;;;;13.48;6.45;;;;;;;;;;6306289;22;20031;-80
2022/06/04 06:19:08;;;;;;;14.80;7.05;;;;;;;;;;6307440;22;20425;-80
2022/06/04 06:21:41;;;;;;;18.60;7.05;;;;;;;;;;6308649;22;20050;-80
2022/06/04 06:24:11;;;;;;;14.70;5.55;;;;;;;;;;6309389;22;20053;-80
2022/06/04 06:26:49;;;;;;;15.20;6.20;;;;;;;;;;6308194;22;20394;-80
2022/06/04 06:29:17;;;;;;;10.05;5.55;;;;;;;;;;6309620;22;20472;-80
2022/06/04 06:31:45;;;;;;;11.18;5.63;;;;;;;;;;6309259;22;20079;-80
2022/06/04 06:34:13;;;;;;;12.90;5.95;;;;;;;;;;6311981;22;20027;-81
2022/06/04 06:37:05;;;;;;;12.80;5.88;;;;;;;;;;6314802;22;20027;-80
2022/06/04 06:39:37;;;;;;;11.80;5.80;;;;;;;;;;6312696;22;20049;-80
2022/06/04 06:42:11;;;;;;;17.98;5.60;;;;;;;;;;6308056;22;20027;-80
2022/06/04 06:44:52;;;;;;;9.63;5.72;;;;;;;;;;6304416;22;20023;-80
2022/06/04 06:47:22;;;;;;;13.10;5.32;;;;;;;;;;6305460;22;20030;-80
2022/06/04 06:49:56;;;;;;;12.30;5.95;;;;;;;;;;6303707;22;20033;-80
2022/06/04 06:52:23;;;;;;;12.68;5.10;;;;;;;;;;6303658;22;20027;-80
2022/06/04 06:54:51;;;;;;;11.77;5.80;;;;;;;;;;6316521;22;20019;-82
2022/06/04 06:57:19;;;;;;;9.43;5.70;;;;;;;;;;6319406;22;20022;-83
2022/06/04 06:59:48;;;;;;;11.75;5.63;;;;;;;;;;6306640;22;20050;-83
2022/06/04 07:02:15;;;;;;;9.43;5.20;;;;;;;;;;6304885;22;20027;-82
2022/06/04 07:04:43;;;;;;;10.57;4.65;;;;;;;;;;6315906;22;20045;-84
2022/06/04 07:07:11;;;;;;;12.05;5.40;;;;;;;;;;6313420;22;20090;-84
2022/06/04 07:09:41;;;;;;;10.80;4.78;;;;;;;;;;6323324;22;20441;-83
2022/06/04 07:12:10;;;;;;;10.23;5.40;;;;;;;;;;6309662;22;20023;-80
2022/06/04 07:14:37;;;;;;;8.45;4.47;;;;;;;;;;6306071;22;20442;-83
2022/06/04 07:17:07;;;;;;;11.55;5.47;;;;;;;;;;6324289;22;20015;-79
2022/06/04 07:19:35;;;;;;;11.30;5.57;;;;;;;;;;6314494;22;20082;-79
2022/06/04 07:22:03;;;;;;;9.05;4.95;;;;;;;;;;6314005;22;20093;-80
2022/06/04 07:24:31;;;;;;;9.52;4.50;;;;;;;;;;6314760;22;20097;-80
2022/06/04 07:27:23;;;;;;;12.10;5.55;;;;;;;;;;6313766;22;20027;-79
2022/06/04 07:29:55;;;;;;;13.60;5.00;;;;;;;;;;6324972;22;20455;-78
2022/06/04 07:36:07;;;;;;;8.93;4.70;;;;;;;;;;6319248;22;20023;-80
2022/06/04 07:38:35;;;;;;;11.38;4.30;;;;;;;;;;6317160;22;20356;-80
2022/06/04 07:41:03;;;;;;;11.95;5.47;;;;;;;;;;6314752;22;20034;-80
2022/06/04 07:43:31;;;;;;;9.25;4.47;;;;;;;;;;6316126;22;20086;-79
2022/06/04 07:45:59;;;;;;;9.48;4.57;;;;;;;;;;6315912;22;20027;-79
2022/06/04 07:48:27;;;;;;;7.85;4.25;;;;;;;;;;6315749;22;20111;-80
2022/06/04 07:50:55;;;;;;;9.02;4.68;;;;;;;;;;6314876;22;20037;-79
2022/06/04 07:53:23;;;;;;;7.93;4.10;;;;;;;;;;6315583;22;20027;-79
2022/06/04 07:55:51;;;;;;;11.68;5.28;;;;;;;;;;6315062;22;20255;-80
2022/06/04 07:58:25;;;;;;;8.88;4.68;;;;;;;;;;6316203;22;20050;-79
2022/06/04 08:00:57;;;;;;;9.60;4.38;;;;;;;;;;6314455;22;20079;-80
2022/06/04 08:03:25;;;;;;;8.10;4.05;;;;;;;;;;6314091;22;20019;-79
2022/06/04 08:05:53;;;;;;;7.85;3.72;;;;;;;;;;6314559;22;20015;-80
2022/06/04 08:08:21;;;;;;;8.65;4.00;;;;;;;;;;6298301;22;20026;-80
2022/06/04 08:11:32;;;;;;;7.13;3.85;;;;;;;;;;6316772;22;20023;-80
2022/06/04 08:14:13;;;;;;;8.20;3.85;;;;;;;;;;6325723;22;20078;-80
2022/06/04 08:16:54;;;;;;;9.40;4.40;;;;;;;;;;6313260;22;20046;-79
2022/06/04 08:19:23;;;;;;;8.63;4.38;;;;;;;;;;6324265;22;20083;-80
2022/06/04 08:21:55;;;;;;;9.57;3.97;;;;;;;;;;6316319;22;20027;-80
2022/06/04 08:24:23;;;;;;;7.90;4.20;;;;;;;;;;6316364;22;20027;-79
2022/06/04 08:27:02;;;;;;;5.10;3.47;;;;;;;;;;6314631;22;20050;-80
2022/06/04 08:29:34;;;;;;;6.53;3.60;;;;;;;;;;6316523;22;20027;-80
2022/06/04 08:32:09;;;;;;;8.88;3.80;;;;;;;;;;6314755;22;20031;-80
2022/06/04 08:34:37;;;;;;;10.10;3.63;;;;;;;;;;6326093;22;20026;-80
2022/06/04 08:37:06;;;;;;;6.20;3.70;;;;;;;;;;6325827;22;20045;-80
2022/06/04 08:39:39;;;;;;;6.75;4.20;;;;;;;;;;6315979;22;20450;-80
2022/06/04 08:42:10;;;;;;;10.73;4.00;;;;;;;;;;6314620;22;20026;-80
2022/06/04 08:44:44;;;;;;;6.47;3.40;;;;;;;;;;6324666;22;20031;-80
2022/06/04 08:47:14;;;;;;;9.80;3.75;;;;;;;;;;6312917;22;20043;-80
2022/06/04 08:50:22;;;;;;;8.68;3.67;;;;;;;;;;6324079;22;20027;-80
2022/06/04 08:52:55;;;;;;;6.40;3.85;;;;;;;;;;6314734;22;20077;-80
2022/06/04 08:58:46;;;;;;;9.75;3.35;;;;;;;;;;6314375;22;20027;-80
2022/06/04 09:01:54;;;;;;;5.53;3.47;;;;;;;;;;6310907;22;20070;-80
2022/06/04 09:04:32;;;;;;;5.38;3.40;;;;;;;;;;6311024;22;20408;-79
2022/06/04 09:07:31;;;;;;;6.20;3.20;;;;;;;;;;6323257;22;20019;-80
2022/06/04 09:10:11;;;;;;;8.40;3.30;;;;;;;;;;6322062;22;20030;-80
2022/06/04 09:12:45;;;;;;;5.28;3.20;;;;;;;;;;6323720;22;20076;-80
2022/06/04 09:15:29;;;;;;;9.10;3.45;;;;;;;;;;6314993;22;20023;-80
2022/06/04 09:18:01;;;;;;;6.78;3.50;;;;;;;;;;6323821;22;20075;-80
2022/06/04 09:20:33;;;;;;;8.90;3.45;;;;;;;;;;6313275;22;20046;-80
2022/06/04 09:23:25;;;;;;;7.22;2.85;;;;;;;;;;6317554;22;20019;-80
2022/06/04 09:26:15;;;;;;;6.93;3.53;;;;;;;;;;6318929;22;20022;-80
2022/06/04 09:29:09;;;;;;;4.75;2.85;;;;;;;;;;6317282;22;20049;-80
2022/06/04 09:31:43;;;;;;;7.13;2.95;;;;;;;;;;6317465;22;20019;-80
2022/06/04 09:34:14;;;;;;;5.45;2.80;;;;;;;;;;6317075;22;20098;-80
2022/06/04 09:36:45;;;;;;;5.28;3.05;;;;;;;;;;6328912;22;20021;-81
2022/06/04 09:39:45;;;;;;;4.18;2.70;;;;;;;;;;6327928;22;20081;-80
2022/06/04 09:43:13;;;;;;;9.45;2.90;;;;;;;;;;6316740;22;20510;-80
2022/06/04 09:49:33;;;;;;;6.40;2.80;;;;;;;;;;6327262;22;20019;-80
2022/06/04 09:52:21;;;;;;;4.40;2.88;;;;;;;;;;6327617;22;20015;-80
2022/06/04 09:54:56;;;;;;;7.72;3.38;;;;;;;;;;6317136;22;20045;-80
2022/06/04 09:57:32;;;;;;;7.57;3.17;;;;;;;;;;6327381;22;20030;-80
2022/06/04 10:00:17;;;;;;;5.07;2.75;;;;;;;;;;6317671;22;20027;-80
2022/06/04 10:02:58;;;;;;;5.80;2.80;;;;;;;;;;6316881;22;20027;-80
2022/06/04 10:06:16;;;;;;;6.38;2.33;;;;;;;;;;6328787;22;20031;-81
2022/06/04 10:12:03;;;;;;;5.50;2.90;;;;;;;;;;6317996;22;20027;-80
2022/06/04 10:14:37;;;;;;;5.68;3.20;;;;;;;;;;6316995;22;20091;-80
2022/06/04 10:17:31;;;;;;;4.68;2.50;;;;;;;;;;6325701;22;20015;-80
2022/06/04 10:20:04;;;;;;;4.72;2.58;;;;;;;;;;6315857;22;20037;-80
2022/06/04 10:22:47;;;;;;;7.93;2.83;;;;;;;;;;6319610;22;20046;-80
2022/06/04 10:25:22;;;;;;;3.72;2.67;;;;;;;;;;6318581;22;20019;-80
2022/06/04 10:28:04;;;;;;;8.15;3.13;;;;;;;;;;6290479;22;20023;-80
2022/06/04 10:30:52;;;;;;;5.45;2.70;;;;;;;;;;6290124;22;20340;-80
2022/06/04 10:33:53;;;;;;;3.97;2.17;;;;;;;;;;6316849;22;20050;-80
2022/06/04 10:36:39;;;;;;;6.05;2.45;;;;;;;;;;6316642;22;20413;-80
2022/06/04 10:39:13;;;;;;;5.40;2.47;;;;;;;;;;6328654;22;20114;-80
2022/06/04 10:42:18;;;;;;;5.45;2.45;;;;;;;;;;6318349;22;20531;-80
2022/06/04 10:45:27;;;;;;;4.20;2.67;;;;;;;;;;6319166;22;20042;-80
2022/06/04 10:48:04;;;;;;;5.13;2.67;;;;;;;;;;6319062;22;20023;-80
2022/06/04 10:51:35;;;;;;;4.15;2.47;;;;;;;;;;6317808;22;20034;-80
2022/06/04 10:54:16;;;;;;;5.07;2.58;;;;;;;;;;6319179;22;20019;-80
2022/06/04 10:57:26;;;;;;;4.85;2.25;;;;;;;;;;6328238;22;20015;-80
2022/06/04 11:00:03;;;;;;;3.95;2.10;;;;;;;;;;6319763;22;20042;-80
2022/06/04 11:02:43;;;;;;;5.13;2.38;;;;;;;;;;6319023;22;20027;-80
2022/06/04 11:05:47;;;;;;;3.58;2.20;;;;;;;;;;6318035;22;20023;-80
2022/06/04 11:08:27;;;;;;;4.10;2.17;;;;;;;;;;6319362;22;20057;-80
2022/06/04 11:11:03;;;;;;;6.88;2.60;;;;;;;;;;6329445;22;20023;-80
2022/06/04 11:13:45;;;;;;;4.45;2.50;;;;;;;;;;6318119;22;20027;-80
2022/06/04 11:16:28;;;;;;;6.18;2.80;;;;;;;;;;6317417;22;20437;-80
2022/06/04 11:19:06;;;;;;;7.13;2.38;;;;;;;;;;6318110;22;20027;-80
2022/06/04 11:21:59;;;;;;;4.78;2.33;;;;;;;;;;6318134;22;20031;-79
2022/06/04 11:24:46;;;;;;;3.42;2.20;;;;;;;;;;6317866;22;20082;-80
2022/06/04 11:27:53;;;;;;;3.35;2.03;;;;;;;;;;6318500;22;20021;-80
2022/06/04 11:34:09;;;;;;;3.10;2.00;;;;;;;;;;6318055;22;20031;-80
2022/06/04 11:37:05;;;;;;;4.82;2.38;;;;;;;;;;6319150;22;20025;-80
2022/06/04 11:39:36;;;;;;;3.92;2.28;;;;;;;;;;6320473;22;20027;-80
2022/06/04 11:42:45;;;;;;;5.47;2.30;;;;;;;;;;6320304;22;20095;-80
2022/06/04 11:45:42;;;;;;;6.47;2.28;;;;;;;;;;6306149;22;20090;-80
2022/06/04 11:48:17;;;;;;;5.35;2.20;;;;;;;;;;6318989;22;20026;-80
2022/06/04 11:51:06;;;;;;;5.47;2.20;;;;;;;;;;6318545;22;20027;-80
2022/06/04 11:54:06;;;;;;;6.20;2.60;;;;;;;;;;6320163;22;20037;-80
2022/06/04 11:57:20;;;;;;;4.47;1.80;;;;;;;;;;6318033;22;20023;-79
2022/06/04 12:00:13;;;;;;;12.60;2.13;;;;;;;;;;6317333;22;20038;-80
2022/06/04 12:02:55;;;;;;;3.85;2.00;;;;;;;;;;6313407;22;20026;-80
2022/06/04 12:06:26;;;;;;;;;;;;;;;;;;6317380;22;20023;-81
2022/06/04 12:09:15;;;;;;;5.53;1.90;;;;;;;;;;6255233;23;19916;-79
2022/06/04 12:11:54;;;;;;;2.45;1.55;;;;;;;;;;6254218;23;20067;-80
2022/06/04 12:14:51;;;;;;;3.38;2.00;;;;;;;;;;6252759;23;20181;-80
2022/06/04 12:17:24;;;;;;;4.32;1.90;;;;;;;;;;6251708;23;20024;-80
2022/06/04 12:26:34;;;;;;;3.97;2.10;;;;;;;;;;6251738;23;20051;-80
2022/06/04 12:29:28;;;;;;;3.95;1.83;;;;;;;;;;6251550;23;20093;-80
2022/06/04 12:31:59;;;;;;;3.70;1.75;;;;;;;;;;6251053;23;20147;-80
2022/06/04 12:34:37;;;;;;;6.77;2.10;;;;;;;;;;6252094;22;20047;-80
2022/06/04 12:37:20;;;;;;;4.03;2.10;;;;;;;;;;6265414;23;20266;-79
2022/06/04 12:39:49;;;;;;;3.30;1.77;;;;;;;;;;6272589;22;20051;-80
2022/06/04 12:42:20;;;;;;;3.65;1.90;;;;;;;;;;6298212;22;20023;-80
2022/06/04 12:45:34;;;;;;;5.10;2.00;;;;;;;;;;6287305;22;20024;-80
2022/06/04 12:48:22;;;;;;;4.18;2.13;;;;;;;;;;6286045;22;20505;-80
2022/06/04 12:51:08;;;;;;;7.00;2.10;;;;;;;;;;6286908;22;20438;-80
2022/06/04 12:53:53;;;;;;;3.35;1.90;;;;;;;;;;6288322;22;20028;-80
2022/06/04 12:56:29;;;;;;;2.72;1.70;;;;;;;;;;6287309;22;20070;-80
2022/06/04 12:59:00;;;;;;;4.75;1.73;;;;;;;;;;6297900;22;20038;-80
2022/06/04 13:01:38;;;;;;;3.25;1.73;;;;;;;;;;6285898;22;20344;-80
2022/06/04 13:04:10;;;;;;;4.03;1.80;;;;;;;;;;6286713;22;20032;-80
2022/06/04 13:06:44;;;;;;;2.42;1.60;;;;;;;;;;6285993;22;20271;-83
2022/06/04 13:09:40;;;;;;;4.20;1.90;;;;;;;;;;6308662;22;20019;-85
2022/06/04 13:12:23;;;;;;;4.55;1.58;;;;;;;;;;6281210;22;20098;-79
2022/06/04 13:15:23;;;;;;;2.50;1.38;;;;;;;;;;6298042;22;20073;-78
2022/06/04 13:17:55;;;;;;;2.60;1.45;;;;;;;;;;6297562;22;20023;-82
2022/06/04 13:20:49;;;;;;;6.30;1.70;;;;;;;;;;6298289;22;20530;-77
2022/06/04 13:23:29;;;;;;;3.28;1.58;;;;;;;;;;6309523;22;20060;-81
2022/06/04 13:26:27;;;;;;;5.35;1.73;;;;;;;;;;6297967;22;20019;-77
2022/06/04 13:28:56;;;;;;;3.47;1.95;;;;;;;;;;6268936;22;20027;-77
2022/06/04 13:31:57;;;;;;;3.75;1.70;;;;;;;;;;6299247;22;20022;-77
2022/06/04 13:34:27;;;;;;;3.22;1.73;;;;;;;;;;6299623;22;20031;-77
2022/06/04 13:37:07;;;;;;;3.40;1.60;;;;;;;;;;6299776;22;20098;-77
2022/06/04 13:39:36;;;;;;;2.88;1.65;;;;;;;;;;6309837;22;20043;-77
2022/06/04 13:42:19;;;;;;;5.70;1.73;;;;;;;;;;6272196;22;20088;-76
2022/06/04 13:45:09;;;;;;;2.88;1.42;;;;;;;;;;6298763;22;20023;-77
2022/06/04 13:47:50;;;;;;;2.88;1.50;;;;;;;;;;6308911;22;20015;-77
2022/06/04 13:50:20;;;;;;;4.82;1.83;;;;;;;;;;6298489;22;20072;-77
2022/06/04 13:53:12;;;;;;;3.13;1.75;;;;;;;;;;6308712;22;20019;-77
2022/06/04 13:55:49;;;;;;;4.88;1.70;;;;;;;;;;6298729;22;20047;-76
2022/06/04 13:58:30;;;;;;;6.03;1.95;;;;;;;;;;6309307;22;20026;-77
2022/06/04 14:01:23;;;;;;;3.55;1.65;;;;;;;;;;6307595;22;20481;-77
2022/06/04 14:06:42;;;;;;;3.58;1.70;;;;;;;;;;6300167;22;20058;-79
2022/06/04 14:09:19;;;;;;;4.88;1.90;;;;;;;;;;6311924;22;20354;-77
2022/06/04 14:12:21;;;;;;;3.88;2.00;;;;;;;;;;6300717;22;20454;-77
2022/06/04 14:15:21;;;;;;;5.35;2.00;;;;;;;;;;6300754;22;20027;-77
2022/06/04 14:17:49;;;;;;;3.55;1.73;;;;;;;;;;6300139;22;20045;-77
2022/06/04 14:20:35;;;;;;;2.70;1.50;;;;;;;;;;6302166;22;20023;-78
2022/06/04 14:23:20;;;;;;;2.55;1.50;;;;;;;;;;6301548;22;20027;-77
2022/06/04 14:26:02;;;;;;;3.20;1.63;;;;;;;;;;6311463;22;20418;-77
2022/06/04 14:28:48;;;;;;;2.42;1.35;;;;;;;;;;6311652;22;20339;-77
2022/06/04 14:31:28;;;;;;;3.90;1.90;;;;;;;;;;6301326;22;20027;-78
2022/06/04 14:34:21;;;;;;;4.85;1.75;;;;;;;;;;6300009;22;20027;-77
2022/06/04 14:36:53;;;;;;;4.82;1.70;;;;;;;;;;6300019;22;20030;-77
2022/06/04 14:39:23;;;;;;;3.05;1.40;;;;;;;;;;6299973;22;20031;-78
2022/06/04 14:42:59;;;;;;;4.00;1.88;;;;;;;;;;6301015;22;20019;-77
2022/06/04 14:45:39;;;;;;;3.40;1.63;;;;;;;;;;6300187;22;20030;-77
2022/06/04 14:48:26;;;;;;;3.40;1.80;;;;;;;;;;6310128;22;20499;-77
2022/06/04 14:51:44;;;;;;;3.08;1.80;;;;;;;;;;6301022;22;20102;-77
2022/06/04 14:54:39;;;;;;;3.75;1.70;;;;;;;;;;6174725;23;20036;-78
2022/06/04 14:58:05;;;;;;;3.17;1.58;;;;;;;;;;6184002;23;20053;-78
2022/06/04 15:00:40;;;;;;;;;;;;;;;;;;6174641;23;20033;-77
2022/06/04 15:03:41;;;;;;;3.33;1.90;;;;;;;;;;6175126;23;20690;-78
2022/06/04 15:06:44;;;;;;;3.00;1.55;;;;;;;;;;6175333;23;20029;-78
2022/06/04 15:10:02;;;;;;;3.47;1.80;;;;;;;;;;6183945;23;20619;-78
2022/06/04 15:12:49;;;;;;;2.88;1.73;;;;;;;;;;6175439;23;20106;-77
2022/06/04 15:15:44;;;;;;;3.50;2.05;;;;;;;;;;6174833;23;20025;-79
2022/06/04 15:18:34;;;;;;;3.53;1.90;;;;;;;;;;6184779;23;20029;-79
2022/06/04 15:21:11;;;;;;;4.13;1.83;;;;;;;;;;6184576;23;20033;-81
2022/06/04 15:24:22;;;;;;;4.45;1.80;;;;;;;;;;6175078;23;20585;-78
2022/06/04 15:36:49;;;;;;;3.67;1.67;;;;;;;;;;6299632;22;20027;-77
2022/06/04 15:39:32;;;;;;;4.35;2.00;;;;;;;;;;6299920;22;20637;-78
2022/06/04 15:42:06;;;;;;;5.40;1.88;;;;;;;;;;6309714;22;20448;-77
2022/06/04 15:45:02;;;;;;;3.92;1.88;;;;;;;;;;6300009;22;20027;-77
2022/06/04 15:47:47;;;;;;;5.72;2.30;;;;;;;;;;6309277;22;20089;-77
2022/06/04 15:56:17;;;;;;;2.95;1.80;;;;;;;;;;6309199;22;20085;-77
2022/06/04 15:58:51;;;;;;;4.68;1.98;;;;;;;;;;6310527;22;20088;-77
2022/06/04 16:01:48;;;;;;;4.70;2.08;;;;;;;;;;6310104;22;20541;-77
2022/06/04 16:04:20;;;;;;;4.35;2.15;;;;;;;;;;6308923;22;20090;-77
2022/06/04 16:06:59;;;;;;;4.63;2.40;;;;;;;;;;6299768;22;20026;-77
2022/06/04 16:09:28;;;;;;;5.23;2.17;;;;;;;;;;6273497;22;20023;-77
2022/06/04 16:12:36;;;;;;;3.42;2.03;;;;;;;;;;6310820;22;20027;-78
2022/06/04 16:15:26;;;;;;;3.90;2.10;;;;;;;;;;6299719;22;20026;-77
2022/06/04 16:18:25;;;;;;;3.38;2.10;;;;;;;;;;6299845;22;20027;-77
2022/06/04 16:21:19;;;;;;;6.85;2.55;;;;;;;;;;6300088;22;20027;-77
2022/06/04 16:24:03;;;;;;;5.65;2.45;;;;;;;;;;6309898;22;20022;-77
2022/06/04 16:26:54;;;;;;;5.97;2.35;;;;;;;;;;6298325;22;20459;-77
2022/06/04 16:29:34;;;;;;;4.45;2.38;;;;;;;;;;6309754;22;20041;-77
2022/06/04 16:32:09;;;;;;;4.72;2.47;;;;;;;;;;6299004;22;20492;-77
2022/06/04 16:34:49;;;;;;;3.53;2.08;;;;;;;;;;6299535;22;20039;-78
2022/06/04 16:37:34;;;;;;;3.22;1.80;;;;;;;;;;6300719;22;20020;-77
2022/06/04 16:43:14;;;;;;;4.00;2.03;;;;;;;;;;6300288;22;20023;-78
2022/06/04 16:45:47;;;;;;;5.28;2.65;;;;;;;;;;6298860;22;20047;-77
2022/06/04 16:48:29;;;;;;;4.28;2.40;;;;;;;;;;6299947;22;20028;-77
2022/06/04 16:50:59;;;;;;;5.20;2.33;;;;;;;;;;6297762;22;20050;-77
2022/06/04 16:53:28;;;;;;;3.88;2.13;;;;;;;;;;6300179;22;20077;-77
2022/06/04 16:56:21;;;;;;;4.72;2.50;;;;;;;;;;6299836;22;20031;-77
2022/06/04 16:58:49;;;;;;;4.15;2.45;;;;;;;;;;6308998;22;20015;-77
2022/06/04 17:02:02;;;;;;;3.80;2.30;;;;;;;;;;6293297;22;20030;-77